Latest Weather Observations for Middle Percy Island

IDQ60801

Issued at 7:32 am EST Tuesday 23 December 2014 (issued every 30 minutes, with the page automatically refreshed every 10 minutes)

About weather observations | Map of weather stations | Latest weather observations for QLD | Other Formats
Station Details ID: 200001 Name: MIDDLE PERCY ISLAND Lat: -21.66 Lon: 150.27 Height: 208.7 m
Data from the previous 72 hours. | See also: Recent months at Middle Percy Island
Date/Time
EST
Temp
°C
App
Temp
°C
Dew
Point
Rel
Hum
%
Delta-T
°C
Wind Press
QNH
hPa
Press
MSL
hPa
Rain
since 9 am
mm
Dir
 
Spd
km/h
Gust
km/h
Spd
kts
Gust
kts
23/07:30am 25.7 25.3 19.3 67 4.1 SE 20 32 11 17 1014.5 1013.3 0.0
23/07:00am 25.0 23.6 18.9 69 3.9 SE 24 33 13 18 1014.4 1013.2 0.0
23/06:30am 24.6 23.4 18.5 69 3.9 SE 22 32 12 17 1014.3 1013.1 0.0
23/06:00am 23.7 23.1 18.4 72 3.4 SE 19 30 10 16 1014.2 1013.0 0.0
23/05:30am 23.3 21.8 17.7 71 3.5 SE 22 30 12 16 1014.1 1012.9 0.0
23/05:00am 23.2 22.0 17.4 70 3.6 SE 20 28 11 15 1013.6 1012.4 0.0
23/04:30am 23.2 22.4 18.1 73 3.2 SE 19 26 10 14 1013.4 1012.2 0.0
23/04:00am 23.2 21.9 17.2 69 3.7 ESE 20 32 11 17 1013.3 1012.1 0.0
23/03:30am 23.3 21.0 17.7 71 3.5 SE 26 39 14 21 1013.1 1011.9 0.0
23/03:00am 23.3 21.7 17.5 70 3.6 SE 22 33 12 18 1013.1 1011.9 0.0
23/02:30am 23.4 21.7 17.2 68 3.9 ESE 22 33 12 18 1013.4 1012.2 0.0
23/02:00am 23.6 20.5 17.6 69 3.8 SE 30 41 16 22 1013.8 1012.6 0.0
23/01:30am 23.7 22.0 18.1 71 3.5 ESE 24 35 13 19 1013.7 1012.5 0.0
23/01:00am 23.7 21.3 17.4 68 3.9 ESE 26 43 14 23 1013.9 1012.7 0.0
23/12:30am 23.8 21.8 18.4 72 3.4 ESE 26 41 14 22 1014.3 1013.1 0.0
23/12:00am 23.9 22.1 18.8 73 3.3 ESE 26 37 14 20 1014.6 1013.4 0.0
 
Date/Time
EST
Temp
°C
App
Temp
°C
Dew
Point
Rel
Hum
%
Delta-T
°C
Wind Press
QNH
hPa
Press
MSL
hPa
Rain
since 9 am
mm
Dir
 
Spd
km/h
Gust
km/h
Spd
kts
Gust
kts
22/11:30pm 23.8 21.8 18.2 71 3.5 ESE 26 37 14 20 1014.8 1013.6 0.0
22/11:00pm 23.9 21.4 18.8 73 3.3 ESE 30 39 16 21 1015.1 1013.9 0.0
22/10:30pm 23.9 22.1 18.8 73 3.3 ESE 26 41 14 22 1015.5 1014.2 0.0
22/10:00pm 24.0 22.4 19.1 74 3.1 ESE 26 37 14 20 1015.6 1014.3 0.0
22/09:30pm 24.0 23.0 19.7 77 2.8 ESE 24 43 13 23 1015.4 1014.1 0.0
22/09:00pm 24.0 22.8 19.3 75 3.0 SE 24 35 13 19 1015.2 1014.0 0.0
22/08:30pm 24.0 22.6 18.9 73 3.3 ESE 24 37 13 20 1015.1 1013.9 0.0
22/08:00pm 24.0 22.2 19.5 76 2.9 ESE 28 39 15 21 1014.8 1013.6 0.0
22/07:30pm 23.9 21.7 18.8 73 3.3 ESE 28 41 15 22 1014.6 1013.4 0.0
22/07:00pm 23.9 22.2 19.0 74 3.1 SE 26 39 14 21 1014.4 1013.2 0.0
22/06:30pm 24.2 22.3 19.3 74 3.2 SE 28 41 15 22 1014.1 1012.9 0.0
22/06:00pm 24.9 23.9 19.7 73 3.4 SE 24 35 13 19 1014.0 1012.8 0.0
22/05:30pm 25.2 23.5 18.9 68 4.1 SE 26 35 14 19 1013.8 1012.6 0.0
22/05:00pm 26.0 24.5 19.4 67 4.3 SE 26 37 14 20 1013.8 1012.6 0.0
22/04:30pm 25.5 22.7 18.2 64 4.7 SE 30 41 16 22 1013.7 1012.5 0.0
22/04:00pm 25.9 23.7 18.6 64 4.7 SE 28 44 15 24 1013.6 1012.4 0.0
22/03:30pm 26.4 24.6 18.8 63 4.9 SE 26 39 14 21 1013.8 1012.6 0.0
22/03:00pm 26.4 23.6 18.3 61 5.2 SE 30 43 16 23 1014.0 1012.8 0.0
22/02:30pm 26.8 23.5 18.4 60 5.4 SE 33 46 18 25 1014.2 1013.0 0.0
22/02:00pm 27.5 25.0 18.8 59 5.6 SE 30 43 16 23 1014.4 1013.2 0.0
22/01:30pm 27.6 25.2 18.3 57 6.0 SE 28 43 15 23 1014.8 1013.6 0.0
22/01:00pm 28.0 25.6 19.0 58 5.8 SSE 30 41 16 22 1015.1 1013.9 0.0
22/12:30pm 27.6 25.0 18.6 58 5.8 SSE 30 39 16 21 1015.2 1014.0 0.0
22/12:00pm 27.2 25.5 19.8 64 4.8 SE 28 44 15 24 1015.6 1014.3 0.0
22/11:42am 27.8 26.5 20.6 65 4.8 SE 28 46 15 25 1015.8 1014.5 0.0
22/11:30am 27.0 24.8 19.6 64 4.8 SE 30 46 16 25 1015.9 1014.6 0.0
22/11:00am 27.1 24.7 19.2 62 5.1 SSE 30 43 16 23 1015.9 1014.6 0.0
22/10:30am 27.1 25.6 19.4 62 5.0 SE 26 37 14 20 1016.1 1014.8 0.0
22/10:00am 26.7 24.5 18.8 62 5.1 SE 28 39 15 21 1016.2 1014.9 0.0
22/09:30am 26.6 24.4 18.7 62 5.1 SE 28 37 15 20 1016.1 1014.8 0.0
22/09:00am 26.1 24.2 18.5 63 4.9 ESE 26 37 14 20 1016.2 1014.9 0.0
22/08:30am 26.4 24.6 18.8 63 4.9 SE 26 35 14 19 1016.1 1014.8 0.0
22/08:00am 26.0 25.1 19.9 69 4.0 SE 24 37 13 20 1016.2 1014.9 0.0
22/07:30am 25.5 24.7 18.4 65 4.5 ESE 20 32 11 17 1015.9 1014.6 0.0
22/07:00am 25.0 24.3 18.7 68 4.0 SE 20 35 11 19 1015.5 1014.2 0.0
22/06:30am 24.8 24.1 19.4 72 3.5 ESE 22 32 12 17 1015.0 1013.8 0.0
22/06:00am 23.4 24.0 17.8 71 3.5 ESE 11 22 6 12 1014.7 1013.5 0.0
22/05:30am 23.4 24.1 18.9 76 2.9 ESE 13 22 7 12 1014.4 1013.2 0.0
22/05:00am 23.3 25.1 18.8 76 2.9 E 7 17 4 9 1014.1 1012.9 0.0
22/04:30am 23.3 24.7 18.6 75 3.0 E 9 19 5 10 1014.1 1012.9 0.0
22/04:00am 23.4 23.9 18.3 73 3.2 ESE 13 22 7 12 1014.0 1012.8 0.0
22/03:30am 23.5 24.0 19.2 77 2.8 ESE 15 28 8 15 1013.9 1012.7 0.0
22/03:00am 23.8 24.0 19.3 76 2.9 ESE 17 24 9 13 1014.2 1013.0 0.0
22/02:30am 23.7 22.8 19.8 79 2.5 ESE 24 33 13 18 1014.1 1012.9 0.0
22/02:00am 23.8 23.6 19.7 78 2.7 ESE 20 33 11 18 1014.2 1013.0 0.0
22/01:30am 23.9 23.1 20.0 79 2.5 ESE 24 33 13 18 1014.5 1013.3 0.0
22/01:00am 23.9 24.7 19.8 78 2.7 ESE 15 26 8 14 1014.7 1013.5 0.0
22/12:30am 23.8 24.9 19.7 78 2.7 ESE 13 22 7 12 1015.1 1013.9 0.0
22/12:00am 24.1 24.3 19.4 75 3.0 ESE 17 32 9 17 1015.4 1014.1 0.0
 
Date/Time
EST
Temp
°C
App
Temp
°C
Dew
Point
Rel
Hum
%
Delta-T
°C
Wind Press
QNH
hPa
Press
MSL
hPa
Rain
since 9 am
mm
Dir
 
Spd
km/h
Gust
km/h
Spd
kts
Gust
kts
21/11:30pm 24.1 23.9 19.4 75 3.0 ESE 19 35 10 19 1015.8 1014.5 0.0
21/11:00pm 23.9 24.9 19.4 76 2.9 ESE 13 22 7 12 1015.9 1014.6 0.0
21/10:30pm 24.2 24.9 19.7 76 2.9 ESE 15 24 8 13 1016.1 1014.8 0.0
21/10:00pm 24.1 25.6 19.8 77 2.8 ESE 11 24 6 13 1016.1 1014.8 0.0
21/09:30pm 24.0 25.2 19.9 78 2.7 ESE 13 28 7 15 1016.1 1014.8 0.0
21/09:00pm 24.2 24.3 19.9 77 2.8 ESE 19 32 10 17 1015.8 1014.5 0.0
21/08:30pm 24.1 25.3 19.8 77 2.8 ESE 13 28 7 15 1015.7 1014.4 0.0
21/08:00pm 24.2 25.7 20.5 80 2.4 ESE 13 24 7 13 1015.7 1014.4 0.0
21/07:30pm 24.4 26.2 20.3 78 2.7 ESE 11 20 6 11 1015.6 1014.3 0.0
21/07:00pm 24.4 25.1 20.5 79 2.6 ESE 17 28 9 15 1015.2 1014.0 0.0
21/06:30pm 24.6 24.8 20.1 76 2.9 ESE 19 30 10 16 1014.8 1013.6 0.0
21/06:00pm 24.9 24.3 20.6 77 2.8 ESE 24 33 13 18 1014.6 1013.4 0.0
21/05:30pm 25.1 25.3 20.6 76 3.0 ESE 20 30 11 16 1014.4 1013.2 0.0
21/05:00pm 25.6 25.0 20.6 74 3.3 ESE 24 33 13 18 1014.3 1013.1 0.0
21/04:30pm 26.2 26.0 21.2 74 3.3 ESE 24 33 13 18 1014.2 1013.0 0.0
21/04:00pm 26.5 25.8 21.0 72 3.7 ESE 26 37 14 20 1014.2 1013.0 0.0
21/03:30pm 27.4 27.3 21.4 70 4.0 ESE 24 33 13 18 1014.3 1013.1 0.0
21/03:00pm 27.3 26.4 20.6 67 4.4 SE 26 35 14 19 1014.6 1013.4 0.0
21/02:30pm 27.4 26.8 21.2 69 4.1 ESE 26 35 14 19 1015.0 1013.8 0.0
21/02:00pm 27.6 27.4 21.2 68 4.3 ESE 24 32 13 17 1015.4 1014.1 0.0
21/01:30pm 25.5 26.6 22.0 81 2.4 ESE 19 28 10 15 1015.8 1014.5 0.0
21/01:00pm 27.6 27.5 21.4 69 4.2 SE 24 32 13 17 1016.0 1014.7 0.0
21/12:30pm 27.8 27.2 21.3 67 4.4 ESE 26 35 14 19 1016.0 1014.7 0.0
21/12:00pm 27.9 27.2 21.0 66 4.6 ESE 26 33 14 18 1016.0 1014.7 0.0
21/11:30am 27.6 26.8 20.9 67 4.5 SE 26 33 14 18 1016.2 1014.9 0.0
21/11:00am 27.7 27.1 20.5 65 4.8 SE 24 35 13 19 1016.3 1015.0 0.0
21/10:30am 27.9 27.8 21.4 67 4.4 SE 24 33 13 18 1016.4 1015.1 0.0
21/10:00am 27.4 27.0 21.0 68 4.3 SE 24 35 13 19 1016.2 1014.9 0.0
21/09:30am 27.6 28.3 21.6 70 4.0 ESE 20 30 11 16 1016.2 1014.9 0.0
21/09:00am 27.1 27.2 20.4 66 4.4 SE 20 32 11 17 1016.1 1014.8 0.0
21/08:30am 26.5 26.4 20.8 71 3.8 SE 22 37 12 20 1015.9 1014.6 0.0
21/08:00am 26.3 26.6 20.8 71 3.6 ESE 20 33 11 18 1015.7 1014.4 0.0
21/07:30am 25.9 27.5 20.7 73 3.4 ESE 13 28 7 15 1015.4 1014.1 0.0
21/07:00am 26.2 28.2 20.8 72 3.6 E 11 24 6 13 1015.2 1014.0 0.0
21/06:30am 25.6 28.6 20.8 75 3.2 E 6 17 3 9 1014.9 1013.7 0.0
21/06:00am 24.8 27.4 20.5 77 2.8 E 7 19 4 10 1014.7 1013.5 0.0
21/05:30am 24.2 26.8 20.5 80 2.4 E 7 19 4 10 1014.4 1013.2 0.0
21/05:00am 24.2 25.5 20.9 82 2.2 ENE 15 20 8 11 1014.0 1012.8 0.0
21/04:30am 24.4 25.6 20.7 80 2.4 ENE 15 24 8 13 1013.6 1012.4 0.0
21/04:00am 24.3 25.7 21.0 82 2.2 ENE 15 20 8 11 1013.3 1012.1 0.0
21/03:30am 24.1 25.4 20.8 82 2.2 ENE 15 26 8 14 1013.3 1012.1 0.0
21/03:00am 24.1 24.9 20.6 81 2.3 ENE 17 24 9 13 1013.5 1012.3 0.0
21/02:30am 24.0 24.9 20.9 83 2.0 ENE 17 26 9 14 1013.3 1012.1 0.0
21/02:00am 24.1 25.7 21.4 85 1.8 ENE 15 26 8 14 1013.6 1012.4 0.0
21/01:30am 24.2 26.2 21.5 85 1.8 ENE 13 26 7 14 1013.7 1012.5 0.0
21/01:00am 24.1 25.7 21.4 85 1.8 ENE 15 24 8 13 1013.8 1012.6 0.0
21/12:30am 24.3 25.2 21.6 85 1.8 ENE 19 28 10 15 1014.0 1012.8 0.0
21/12:00am 24.2 25.3 21.3 84 1.9 ENE 17 26 9 14 1014.4 1013.2 0.0
 
Date/Time
EST
Temp
°C
App
Temp
°C
Dew
Point
Rel
Hum
%
Delta-T
°C
Wind Press
QNH
hPa
Press
MSL
hPa
Rain
since 9 am
mm
Dir
 
Spd
km/h
Gust
km/h
Spd
kts
Gust
kts
20/11:30pm 24.3 26.2 21.4 84 1.9 ENE 13 22 7 12 1014.7 1013.5 0.0
20/11:00pm 24.4 25.6 21.5 84 1.9 ENE 17 33 9 18 1014.7 1013.5 0.0
20/10:30pm 24.3 26.6 21.4 84 1.9 ENE 11 22 6 12 1015.0 1013.8 0.0
20/10:00pm 24.3 26.1 21.2 83 2.1 E 13 22 7 12 1015.2 1014.0 0.0
20/09:30pm 24.4 26.8 21.5 84 1.9 E 11 24 6 13 1015.1 1013.9 0.0
20/09:00pm 24.4 26.9 21.7 85 1.8 E 11 28 6 15 1014.8 1013.6 0.0
20/08:30pm 24.4 26.4 21.5 84 1.9 E 13 30 7 16 1014.5 1013.3 0.0
20/08:00pm 24.4 26.3 21.3 83 2.1 E 13 28 7 15 1014.1 1012.9 0.0
20/07:30pm 24.4 25.2 21.3 83 2.1 ESE 19 30 10 16 1013.8 1012.6 0.0
20/07:00pm 24.4 23.6 20.9 81 2.3 ESE 26 37 14 20 1013.6 1012.4 0.0
20/06:30pm 24.5 23.7 20.8 80 2.4 ESE 26 39 14 21 1013.2 1012.0 0.0
20/06:00pm 24.9 24.2 21.0 79 2.6 ESE 26 39 14 21 1012.8 1011.6 0.0
20/05:30pm 25.6 24.6 21.3 77 2.9 ESE 28 33 15 18 1012.5 1011.3 0.0
20/05:00pm 25.7 24.7 20.5 73 3.4 SE 26 33 14 18 1012.4 1011.2 0.0
20/04:30pm 26.2 25.2 20.5 71 3.8 ESE 26 32 14 17 1012.3 1011.1 0.0
20/04:00pm 27.0 26.7 21.1 70 3.9 ESE 24 33 13 18 1012.1 1010.8 0.0
20/03:30pm 27.2 27.0 21.2 69 4.0 ESE 24 32 13 17 1012.1 1010.8 0.0
20/03:00pm 27.3 27.3 20.9 68 4.3 SE 22 32 12 17 1012.4 1011.2 0.0
20/02:30pm 27.7 28.0 21.5 69 4.2 ESE 22 32 12 17 1012.7 1011.5 0.0
20/02:00pm 27.3 26.7 21.3 69 4.0 SE 26 33 14 18 1013.0 1011.8 0.0
20/01:30pm 27.5 27.6 21.8 71 3.8 SE 24 32 13 17 1013.3 1012.1 0.0
20/01:00pm 27.5 28.6 22.4 73 3.5 ESE 20 30 11 16 1013.5 1012.3 0.0
20/12:30pm 27.6 29.0 22.8 75 3.3 SE 20 32 11 17 1013.7 1012.5 0.0
20/12:00pm 28.1 29.9 23.2 74 3.4 SE 19 26 10 14 1014.1 1012.9 0.0
20/11:30am 28.2 30.4 23.3 75 3.4 SE 17 26 9 14 1014.6 1013.4 0.0
20/11:00am 27.9 31.0 24.1 80 2.6 ESE 15 20 8 11 1014.7 1013.5 0.0
20/10:30am 27.5 30.5 22.7 75 3.3 SE 11 19 6 10 1014.4 1013.2 0.0
20/10:00am 27.8 31.5 23.2 76 3.2 SE 9 19 5 10 1014.6 1013.4 0.0
20/09:30am 26.9 30.1 22.3 76 3.1 SE 9 15 5 8 1014.5 1013.3 0.0
20/09:00am 27.8 32.4 24.2 81 2.5 SE 7 13 4 7 1014.3 1013.1 11.4
20/08:30am 27.4 31.5 23.2 78 2.9 ESE 7 11 4 6 1014.3 1013.1 11.4
20/08:00am 27.3 31.5 23.5 80 2.6 ESE 7 9 4 5 1014.2 1013.0 11.2

Other Formats:

Comma delimited format used in spreadsheet applications
http://www.bom.gov.au/fwo/IDQ60801/IDQ60801.94372.axf

JavaScript Object Notation format (JSON) in row-major order
http://www.bom.gov.au/fwo/IDQ60801/IDQ60801.94372.json